Joyce, Louisiana
Current Conditions -  °F | °C
As of 6:35 PM on Friday 21 Nov 2014 (Local Time) from KIER Reporting Station
Light Rain Light Rain  
Wind Chill: 61°   Ceiling: 6500
Heat Index: 61°   Visibility: 10mi
Dew Point: 53°   Wind: 3mph
Humidity: 76%   Direction: 90°E
Pressure: 30.21"   Gusts: NA
Location:  31.94°N, 92.6°W
Report Text: KIER 220035Z AUTO 09003KT 10SM -RA SCT055 BKN065 OVC080 16/12 A3021 RMK AO2 T01620119
Loading
Personal Weather Stations






























Interactive Weather Map New forecast layout! Learn more

10-Day Weather Forecast

Advertisements
Track Severe Weather on mobile